Santa Cruz de la Sierra, Bolivia
Current Conditions -  °F | °C
As of 10:00 AM on Wednesday 28 Jan 2015 (Local Time) from SLET Reporting Station
Broken Clouds Broken Clouds  
Wind Chill: 28°   Ceiling: 1500
Heat Index: 31°   Visibility: 6mi
Dew Point: 22°   Wind: 23mph
Humidity: 70%   Direction: 340°NNW
Pressure: 29.83"   Gusts: 37mph
Location:  17.79°S, 63.2°W
Report Text: SLET 281400Z 34020G32KT 9999 SCT012 BKN015 28/22 Q1010
Loading
Personal Weather Stations






























Interactive Weather Map New forecast layout! Learn more

10-Day Weather Forecast

Advertisements
Track Severe Weather on mobile